createdAt,value
2023-01-19T00:00:28.609Z,9.25
2023-01-19T00:02:55.259Z,9.85
2023-01-19T00:05:22.112Z,9.65
2023-01-19T00:07:48.626Z,10.48
2023-01-19T00:10:15.257Z,10.48
2023-01-19T00:12:41.742Z,9.70
2023-01-19T00:15:08.747Z,10.85
2023-01-19T00:17:35.199Z,9.07
2023-01-19T00:20:01.672Z,10.07
2023-01-19T00:22:28.102Z,11.05
2023-01-19T00:24:54.547Z,8.35
2023-01-19T00:27:20.995Z,9.82
2023-01-19T00:29:47.444Z,9.25
2023-01-19T00:32:14.020Z,11.63
2023-01-19T00:34:42.554Z,10.20
2023-01-19T00:37:09.803Z,11.85
2023-01-19T00:39:36.290Z,12.88
2023-01-19T00:42:32.511Z,10.25
2023-01-19T00:44:59.032Z,11.43
2023-01-19T00:47:25.536Z,10.77
2023-01-19T00:49:52.023Z,11.80
2023-01-19T00:52:19.029Z,13.10
2023-01-19T00:54:45.555Z,9.82
2023-01-19T00:57:12.673Z,10.02
2023-01-19T00:59:39.186Z,10.48
2023-01-19T01:02:05.827Z,12.13
2023-01-19T01:04:32.407Z,9.70
2023-01-19T01:06:58.856Z,10.90
2023-01-19T01:09:26.552Z,10.38
2023-01-19T01:11:53.241Z,10.90
2023-01-19T01:14:19.675Z,10.45
2023-01-19T01:16:46.324Z,10.90
2023-01-19T01:19:12.826Z,10.60
2023-01-19T01:21:39.314Z,12.18
2023-01-19T01:24:06.061Z,11.88
2023-01-19T01:26:32.608Z,10.40
2023-01-19T01:28:59.114Z,11.55
2023-01-19T01:31:25.955Z,11.38
2023-01-19T01:33:52.475Z,10.82
2023-01-19T01:36:19.050Z,11.32
2023-01-19T01:38:45.490Z,10.70
2023-01-19T01:41:12.098Z,11.80
2023-01-19T01:43:47.589Z,9.95
2023-01-19T01:46:15.481Z,12.75
2023-01-19T01:48:46.789Z,12.05
2023-01-19T01:51:25.399Z,10.52
2023-01-19T01:54:07.327Z,12.88
2023-01-19T01:56:45.285Z,11.32
2023-01-19T01:59:25.852Z,11.02
2023-01-19T02:02:16.057Z,11.75
2023-01-19T02:05:04.219Z,12.07
2023-01-19T02:08:20.703Z,12.43
2023-01-19T02:11:06.208Z,11.25
2023-01-19T02:13:35.139Z,11.20
2023-01-19T02:16:04.082Z,11.45
2023-01-19T02:18:31.569Z,12.50
2023-01-19T02:21:08.408Z,11.75
2023-01-19T02:23:47.870Z,11.40
2023-01-19T02:26:17.412Z,12.00
2023-01-19T02:28:48.339Z,12.38
2023-01-19T02:31:15.185Z,11.95
2023-01-19T02:33:41.811Z,10.10
2023-01-19T02:36:09.990Z,12.35
2023-01-19T02:38:38.327Z,10.55
2023-01-19T02:41:06.563Z,11.95
2023-01-19T02:43:33.405Z,10.88
2023-01-19T02:45:59.881Z,10.60
2023-01-19T02:48:26.460Z,11.88
2023-01-19T02:50:57.246Z,10.50
2023-01-19T02:53:32.716Z,10.40
2023-01-19T02:56:32.361Z,10.25
2023-01-19T02:59:04.914Z,10.35
2023-01-19T03:02:11.647Z,11.00
2023-01-19T03:04:44.036Z,9.75
2023-01-19T03:07:14.560Z,11.38
2023-01-19T03:09:55.488Z,10.43
2023-01-19T03:12:27.307Z,9.90
2023-01-19T03:14:59.070Z,10.25
2023-01-19T03:17:26.830Z,11.70
2023-01-19T03:19:54.206Z,11.23
2023-01-19T03:22:28.512Z,10.20
2023-01-19T03:24:56.976Z,11.63
2023-01-19T03:27:29.902Z,11.10
2023-01-19T03:30:02.001Z,9.88
2023-01-19T03:32:32.499Z,10.70
2023-01-19T03:35:00.676Z,10.85
2023-01-19T03:37:29.548Z,11.02
2023-01-19T03:39:56.446Z,10.77
2023-01-19T03:42:24.507Z,10.30
2023-01-19T03:44:52.463Z,10.10
2023-01-19T03:47:19.391Z,11.32
2023-01-19T03:49:47.317Z,10.68
2023-01-19T03:52:14.149Z,10.35
2023-01-19T03:54:41.154Z,10.25
2023-01-19T03:57:07.950Z,11.68
2023-01-19T03:59:34.690Z,10.13
2023-01-19T04:02:01.311Z,11.32
2023-01-19T04:04:27.926Z,9.38
2023-01-19T04:06:54.352Z,9.68
2023-01-19T04:09:20.781Z,10.85
2023-01-19T04:11:47.291Z,11.20
2023-01-19T04:14:13.808Z,10.75
2023-01-19T04:16:40.314Z,11.05
2023-01-19T04:19:06.747Z,10.88
2023-01-19T04:21:33.223Z,11.40
2023-01-19T04:23:59.737Z,9.30
2023-01-19T04:26:26.197Z,10.75
2023-01-19T04:28:52.715Z,11.45
2023-01-19T04:31:19.424Z,10.43
2023-01-19T04:33:46.027Z,11.55
2023-01-19T04:36:12.444Z,12.35
2023-01-19T04:38:38.914Z,12.18
2023-01-19T04:41:05.530Z,11.38
2023-01-19T04:43:32.057Z,11.93
2023-01-19T04:45:59.021Z,11.68
2023-01-19T04:48:25.572Z,9.25
2023-01-19T04:50:52.511Z,9.65
2023-01-19T04:53:18.999Z,11.13
2023-01-19T04:55:46.631Z,10.02
2023-01-19T04:58:13.126Z,9.57
2023-01-19T05:00:39.579Z,10.35
2023-01-19T05:03:06.449Z,9.55
2023-01-19T05:05:33.175Z,10.13
2023-01-19T05:07:59.658Z,10.30
2023-01-19T05:10:26.328Z,10.43
2023-01-19T05:12:52.805Z,8.80
2023-01-19T05:15:19.294Z,8.70
2023-01-19T05:17:46.254Z,9.02
2023-01-19T05:20:15.677Z,9.82
2023-01-19T05:22:42.832Z,9.05
2023-01-19T05:25:09.593Z,8.88
2023-01-19T05:27:37.061Z,8.93
2023-01-19T05:30:05.441Z,9.30
2023-01-19T05:32:31.970Z,9.40
2023-01-19T05:34:58.444Z,10.18
2023-01-19T05:37:24.908Z,11.85
2023-01-19T05:39:51.528Z,9.65
2023-01-19T05:42:17.990Z,9.57
2023-01-19T05:44:44.426Z,9.20
2023-01-19T05:47:10.989Z,8.50
2023-01-19T05:49:37.424Z,10.02
2023-01-19T05:52:03.956Z,9.98
2023-01-19T05:54:30.414Z,10.88
2023-01-19T05:56:57.644Z,11.05
2023-01-19T05:59:24.315Z,8.93
2023-01-19T06:01:54.279Z,8.40
2023-01-19T06:04:21.335Z,10.07
2023-01-19T06:06:51.235Z,10.18
2023-01-19T06:09:18.230Z,10.50
2023-01-19T06:11:45.876Z,9.98
2023-01-19T06:14:12.477Z,11.07
2023-01-19T06:16:39.071Z,11.45
2023-01-19T06:19:05.829Z,8.82
2023-01-19T06:21:34.303Z,11.27
2023-01-19T06:24:00.767Z,9.77
2023-01-19T06:26:27.266Z,11.65
2023-01-19T06:28:53.721Z,11.63
2023-01-19T06:31:20.251Z,9.13
2023-01-19T06:33:46.924Z,9.70
2023-01-19T06:36:13.511Z,11.32
2023-01-19T06:38:40.285Z,9.23
2023-01-19T06:41:06.744Z,10.60
2023-01-19T06:43:33.251Z,9.50
2023-01-19T06:46:02.583Z,10.02
2023-01-19T06:48:29.088Z,11.30
2023-01-19T06:50:57.812Z,12.18
2023-01-19T06:53:27.684Z,12.55
2023-01-19T06:55:54.641Z,13.02
2023-01-19T06:58:21.326Z,11.13
2023-01-19T07:00:48.914Z,10.73
2023-01-19T07:03:20.273Z,11.68
2023-01-19T07:05:46.852Z,11.20
2023-01-19T07:08:15.362Z,11.15
2023-01-19T07:11:25.749Z,10.63
2023-01-19T07:13:28.571Z,9.68
2023-01-19T07:15:55.021Z,10.57
2023-01-19T07:18:21.482Z,11.75
2023-01-19T07:20:49.238Z,12.30
2023-01-19T07:23:16.572Z,11.52
2023-01-19T07:25:46.457Z,11.60
2023-01-19T07:28:15.596Z,12.00
2023-01-19T07:30:48.541Z,13.57
2023-01-19T07:33:15.126Z,11.30
2023-01-19T07:35:46.405Z,9.63
2023-01-19T07:38:12.852Z,9.68
2023-01-19T07:40:39.292Z,11.32
2023-01-19T07:43:05.780Z,11.77
2023-01-19T07:45:32.239Z,14.15
2023-01-19T07:47:58.734Z,11.65
2023-01-19T07:50:27.548Z,11.65
2023-01-19T07:52:54.113Z,10.93
2023-01-19T07:55:21.237Z,13.05
2023-01-19T07:57:51.571Z,10.35
2023-01-19T08:00:21.770Z,12.70
2023-01-19T08:02:51.092Z,12.32
2023-01-19T08:05:18.983Z,13.13
2023-01-19T08:07:46.201Z,13.38
2023-01-19T08:10:16.583Z,11.80
2023-01-19T08:12:43.095Z,13.95
2023-01-19T08:15:10.863Z,14.45
2023-01-19T08:17:37.713Z,14.10
2023-01-19T08:20:04.638Z,15.65
2023-01-19T08:22:31.176Z,14.15
2023-01-19T08:24:57.592Z,11.60
2023-01-19T08:27:24.040Z,14.35
2023-01-19T08:29:50.485Z,14.45
2023-01-19T08:32:17.047Z,13.93
2023-01-19T08:34:43.589Z,13.75
2023-01-19T08:37:10.090Z,12.43
2023-01-19T08:39:36.532Z,13.82
2023-01-19T08:42:03.096Z,14.32
2023-01-19T08:44:29.586Z,13.80
2023-01-19T08:46:56.098Z,13.27
2023-01-19T08:49:22.524Z,12.25
2023-01-19T08:51:49.239Z,15.10
2023-01-19T08:54:18.548Z,15.98
2023-01-19T08:56:45.239Z,13.88
2023-01-19T08:59:13.070Z,11.63
2023-01-19T09:01:41.323Z,14.20
2023-01-19T09:04:08.069Z,12.77
2023-01-19T09:06:34.569Z,13.30
2023-01-19T09:09:01.040Z,10.85
2023-01-19T09:11:27.601Z,11.07
2023-01-19T09:13:54.320Z,9.95
2023-01-19T09:16:20.787Z,9.65
2023-01-19T09:18:47.244Z,9.98
2023-01-19T09:21:15.001Z,12.02
2023-01-19T09:23:41.465Z,10.15
2023-01-19T09:26:07.943Z,11.07
2023-01-19T09:28:34.546Z,11.43
2023-01-19T09:31:06.544Z,11.90
2023-01-19T09:33:33.805Z,11.70
2023-01-19T09:36:00.562Z,9.13
2023-01-19T09:38:31.380Z,12.80
2023-01-19T09:40:59.107Z,13.60
2023-01-19T09:43:37.539Z,11.77
2023-01-19T09:46:11.697Z,11.32
2023-01-19T09:48:48.714Z,10.30
2023-01-19T09:51:19.721Z,11.50
2023-01-19T09:53:56.756Z,10.95
2023-01-19T09:56:23.848Z,9.15
2023-01-19T09:58:51.212Z,9.15
2023-01-19T10:01:35.384Z,9.60
2023-01-19T10:04:17.072Z,10.90
2023-01-19T10:06:43.904Z,10.98
2023-01-19T10:09:53.347Z,10.85
2023-01-19T10:12:33.237Z,10.80
2023-01-19T10:15:24.853Z,10.82
2023-01-19T10:18:13.216Z,11.07
2023-01-19T10:20:44.043Z,10.50
2023-01-19T10:23:47.227Z,9.48
2023-01-19T10:26:17.360Z,10.55
2023-01-19T10:28:45.977Z,9.85
2023-01-19T10:31:13.097Z,10.23
2023-01-19T10:33:39.665Z,10.98
2023-01-19T10:36:16.676Z,10.82
2023-01-19T10:38:43.299Z,11.13
2023-01-19T10:41:19.551Z,11.60
2023-01-19T10:43:47.410Z,10.45
2023-01-19T10:46:41.771Z,10.13
2023-01-19T10:49:23.769Z,9.50
2023-01-19T10:51:50.473Z,9.63
2023-01-19T10:54:17.168Z,9.57
2023-01-19T10:56:43.945Z,7.93
2023-01-19T10:59:30.206Z,9.27
2023-01-19T11:02:12.585Z,10.45
2023-01-19T11:04:39.394Z,9.20
2023-01-19T11:07:32.936Z,7.93
2023-01-19T11:10:20.657Z,9.10
2023-01-19T11:13:01.903Z,8.32
2023-01-19T11:15:34.776Z,8.23
2023-01-19T11:18:03.580Z,6.97
2023-01-19T11:20:48.736Z,9.20
2023-01-19T11:23:15.897Z,7.20
2023-01-19T11:25:45.915Z,8.27
2023-01-19T11:28:19.136Z,8.80
2023-01-19T11:31:00.219Z,8.93
2023-01-19T11:33:37.121Z,7.88
2023-01-19T11:36:24.010Z,9.10
2023-01-19T11:38:52.575Z,9.98
2023-01-19T11:41:29.644Z,7.53
2023-01-19T11:44:24.830Z,7.22
2023-01-19T11:46:54.791Z,8.60
2023-01-19T11:49:58.459Z,8.13
2023-01-19T11:52:28.439Z,8.68
2023-01-19T11:55:03.560Z,8.90
2023-01-19T11:57:30.020Z,9.00
2023-01-19T11:59:58.620Z,7.13
2023-01-19T12:02:32.375Z,8.75
2023-01-19T12:05:01.623Z,6.68
2023-01-19T12:07:31.362Z,8.63
2023-01-19T12:10:20.032Z,7.90
2023-01-19T12:12:47.259Z,7.20
2023-01-19T12:15:30.441Z,7.85
2023-01-19T12:17:59.594Z,8.70
2023-01-19T12:20:39.773Z,5.45
2023-01-19T12:23:25.199Z,4.88
2023-01-19T12:26:10.431Z,6.93
2023-01-19T12:28:39.660Z,6.82
2023-01-19T12:31:06.283Z,6.78
2023-01-19T12:33:35.975Z,6.60
2023-01-19T12:36:35.369Z,6.45
2023-01-19T12:39:17.920Z,4.97
2023-01-19T12:41:45.881Z,5.63
2023-01-19T12:44:12.363Z,5.40
2023-01-19T12:46:39.200Z,5.50
2023-01-19T12:49:27.234Z,5.28
2023-01-19T12:52:10.305Z,4.75
2023-01-19T12:54:37.451Z,4.93
2023-01-19T12:57:09.135Z,5.07
2023-01-19T12:59:37.393Z,6.60
2023-01-19T13:02:42.348Z,5.40
2023-01-19T13:05:16.384Z,5.53
2023-01-19T13:08:01.739Z,5.90
2023-01-19T13:11:05.719Z,5.90
2023-01-19T13:13:35.876Z,5.35
2023-01-19T13:16:27.367Z,5.93
2023-01-19T13:19:06.189Z,5.63
2023-01-19T13:21:44.777Z,5.30
2023-01-19T13:24:16.487Z,6.57
2023-01-19T13:26:49.105Z,7.00
2023-01-19T13:29:34.312Z,6.10
2023-01-19T13:32:03.420Z,5.95
2023-01-19T13:34:38.923Z,6.53
2023-01-19T13:37:06.231Z,6.60
2023-01-19T13:39:37.043Z,6.68
2023-01-19T13:42:39.930Z,6.35
2023-01-19T13:45:17.146Z,4.90
2023-01-19T13:47:46.033Z,5.20
2023-01-19T13:50:33.090Z,4.90
2023-01-19T13:52:59.732Z,5.78
2023-01-19T13:55:28.687Z,5.25
2023-01-19T13:57:55.704Z,5.75
2023-01-19T14:00:22.722Z,6.20
2023-01-19T14:03:09.099Z,7.65
2023-01-19T14:05:37.604Z,6.65
2023-01-19T14:08:13.081Z,7.10
2023-01-19T14:10:45.767Z,5.93
2023-01-19T14:13:25.751Z,5.93
2023-01-19T14:15:55.884Z,6.37
2023-01-19T14:18:22.253Z,5.95
2023-01-19T14:21:12.409Z,6.27
2023-01-19T14:23:48.206Z,6.57
2023-01-19T14:26:43.567Z,6.20
2023-01-19T14:29:09.950Z,4.72
2023-01-19T14:31:43.641Z,5.82
2023-01-19T14:34:36.680Z,5.47
2023-01-19T14:37:04.384Z,7.47
2023-01-19T14:39:36.044Z,6.43
2023-01-19T14:42:05.080Z,5.85
2023-01-19T14:44:44.854Z,7.35
2023-01-19T14:47:29.422Z,6.20
2023-01-19T14:49:58.951Z,7.50
2023-01-19T14:52:31.281Z,7.15
2023-01-19T14:54:58.075Z,6.85
2023-01-19T14:57:24.786Z,6.35
2023-01-19T14:59:52.228Z,7.22
2023-01-19T15:02:19.166Z,6.28
2023-01-19T15:04:47.868Z,7.03
2023-01-19T15:07:22.935Z,7.38
2023-01-19T15:09:49.609Z,7.05
2023-01-19T15:12:17.626Z,6.85
2023-01-19T15:14:44.495Z,6.72
2023-01-19T15:17:16.323Z,7.43
2023-01-19T15:19:42.793Z,6.80
2023-01-19T15:22:11.909Z,6.15
2023-01-19T15:24:39.677Z,6.00
2023-01-19T15:27:11.526Z,7.00
2023-01-19T15:29:40.156Z,7.65
2023-01-19T15:32:12.046Z,6.60
2023-01-19T15:34:38.499Z,7.47
2023-01-19T15:37:04.958Z,7.55
2023-01-19T15:39:32.135Z,6.57
2023-01-19T15:41:58.726Z,7.75
2023-01-19T15:44:25.179Z,8.70
2023-01-19T15:46:53.864Z,9.50
2023-01-19T15:49:21.123Z,7.65
2023-01-19T15:51:47.617Z,7.93
2023-01-19T15:54:14.769Z,8.77
2023-01-19T15:56:42.431Z,7.00
2023-01-19T15:59:09.122Z,6.97
2023-01-19T16:01:36.091Z,7.07
2023-01-19T16:04:04.577Z,7.18
2023-01-19T16:06:31.794Z,8.77
2023-01-19T16:09:01.541Z,7.80
2023-01-19T16:11:30.089Z,7.07
2023-01-19T16:13:56.788Z,6.97
2023-01-19T16:16:25.091Z,6.55
2023-01-19T16:18:52.054Z,6.05
2023-01-19T16:21:18.838Z,6.05
2023-01-19T16:23:45.563Z,5.80
2023-01-19T16:26:25.471Z,5.13
2023-01-19T16:28:51.921Z,6.15
2023-01-19T16:31:18.409Z,6.47
2023-01-19T16:33:45.328Z,6.18
2023-01-19T16:36:40.224Z,6.72
2023-01-19T16:39:08.855Z,5.70
2023-01-19T16:41:35.707Z,6.00
2023-01-19T16:44:02.389Z,6.43
2023-01-19T16:46:32.518Z,5.18
2023-01-19T16:49:00.983Z,6.90
2023-01-19T16:51:27.449Z,6.25
2023-01-19T16:53:53.908Z,5.72
2023-01-19T16:56:20.363Z,6.40
2023-01-19T16:58:46.897Z,7.40
2023-01-19T17:01:17.761Z,5.75
2023-01-19T17:03:45.926Z,7.63
2023-01-19T17:06:14.724Z,6.00
2023-01-19T17:08:41.310Z,5.93
2023-01-19T17:11:20.651Z,5.60
2023-01-19T17:13:57.009Z,6.15
2023-01-19T17:16:24.887Z,7.63
2023-01-19T17:18:51.505Z,6.75
2023-01-19T17:21:19.312Z,7.60
2023-01-19T17:23:48.116Z,5.90
2023-01-19T17:26:15.476Z,7.18
2023-01-19T17:28:42.032Z,6.03
2023-01-19T17:31:11.054Z,6.60
2023-01-19T17:33:37.711Z,6.43
2023-01-19T17:36:06.297Z,7.10
2023-01-19T17:38:33.043Z,6.07
2023-01-19T17:40:59.518Z,6.65
2023-01-19T17:43:26.005Z,6.20
2023-01-19T17:45:52.511Z,6.82
2023-01-19T17:48:19.106Z,5.57
2023-01-19T17:50:45.611Z,6.38
2023-01-19T17:53:12.050Z,5.72
2023-01-19T17:55:38.496Z,6.47
2023-01-19T17:58:04.946Z,6.03
2023-01-19T18:00:31.461Z,7.00
2023-01-19T18:02:57.938Z,7.70
2023-01-19T18:05:24.551Z,6.65
2023-01-19T18:07:51.030Z,6.15
2023-01-19T18:10:17.560Z,6.80
2023-01-19T18:12:45.141Z,7.60
2023-01-19T18:15:11.972Z,6.85
2023-01-19T18:17:38.445Z,6.68
2023-01-19T18:20:05.395Z,7.57
2023-01-19T18:22:32.186Z,7.00
2023-01-19T18:24:58.631Z,7.45
2023-01-19T18:27:25.140Z,6.10
2023-01-19T18:29:51.599Z,6.57
2023-01-19T18:32:18.129Z,6.95
2023-01-19T18:34:44.598Z,5.57
2023-01-19T18:37:11.079Z,7.15
2023-01-19T18:39:37.623Z,6.32
2023-01-19T18:42:04.087Z,5.85
2023-01-19T18:44:30.585Z,6.47
2023-01-19T18:46:57.094Z,6.72
2023-01-19T18:49:23.549Z,6.40
2023-01-19T18:51:50.034Z,6.57
2023-01-19T18:54:17.406Z,6.30
2023-01-19T18:56:44.112Z,6.95
2023-01-19T18:59:10.788Z,7.38
2023-01-19T19:01:37.420Z,7.72
2023-01-19T19:04:04.108Z,7.68
2023-01-19T19:06:30.635Z,7.68
2023-01-19T19:08:59.067Z,8.43
2023-01-19T19:11:26.024Z,7.60
2023-01-19T19:13:57.214Z,7.35
2023-01-19T19:16:23.927Z,8.13
2023-01-19T19:18:50.501Z,8.75
2023-01-19T19:21:18.445Z,6.75
2023-01-19T19:23:49.987Z,8.45
2023-01-19T19:26:16.447Z,7.10
2023-01-19T19:28:42.954Z,7.38
2023-01-19T19:31:12.005Z,8.30
2023-01-19T19:33:39.341Z,8.35
2023-01-19T19:36:06.704Z,9.15
2023-01-19T19:38:33.834Z,9.70
2023-01-19T19:41:05.015Z,9.82
2023-01-19T19:43:32.812Z,8.25
2023-01-19T19:45:59.729Z,8.77
2023-01-19T19:48:26.868Z,9.73
2023-01-19T19:50:53.683Z,10.60
2023-01-19T19:53:20.648Z,9.07
2023-01-19T19:56:00.949Z,9.13
2023-01-19T19:58:27.980Z,8.30
2023-01-19T20:00:54.713Z,8.90
2023-01-19T20:03:21.489Z,9.05
2023-01-19T20:05:48.254Z,8.98
2023-01-19T20:08:14.748Z,8.75
2023-01-19T20:10:41.236Z,8.80
2023-01-19T20:13:09.136Z,8.88
2023-01-19T20:15:39.137Z,9.73
2023-01-19T20:18:06.464Z,8.75
2023-01-19T20:20:33.725Z,8.65
2023-01-19T20:23:01.167Z,7.93
2023-01-19T20:25:28.441Z,8.23
2023-01-19T20:27:55.584Z,10.00
2023-01-19T20:30:22.237Z,9.30
2023-01-19T20:32:48.721Z,9.63
2023-01-19T20:35:15.556Z,9.50
2023-01-19T20:37:42.196Z,8.63
2023-01-19T20:40:08.997Z,7.07
2023-01-19T20:42:36.679Z,8.90
2023-01-19T20:45:03.540Z,9.45
2023-01-19T20:47:29.983Z,8.88
2023-01-19T20:49:56.400Z,9.07
2023-01-19T20:52:22.847Z,9.52
2023-01-19T20:54:49.376Z,8.57
2023-01-19T20:57:15.819Z,9.48
2023-01-19T20:59:42.282Z,11.38
2023-01-19T21:02:14.174Z,8.85
2023-01-19T21:04:40.735Z,8.60
2023-01-19T21:07:08.869Z,9.13
2023-01-19T21:09:37.316Z,10.05
2023-01-19T21:12:03.822Z,9.52
2023-01-19T21:14:30.296Z,10.15
2023-01-19T21:16:58.374Z,9.93
2023-01-19T21:19:25.356Z,9.40
2023-01-19T21:21:51.830Z,9.00
2023-01-19T21:24:18.279Z,8.10
2023-01-19T21:26:44.870Z,10.85
2023-01-19T21:29:13.322Z,8.60
2023-01-19T21:31:40.817Z,10.07
2023-01-19T21:34:07.277Z,9.70
2023-01-19T21:36:33.751Z,9.20
2023-01-19T21:39:00.735Z,10.43
2023-01-19T21:41:28.273Z,8.20
2023-01-19T21:43:54.732Z,9.43
2023-01-19T21:46:30.393Z,9.32
2023-01-19T21:49:01.309Z,9.50
2023-01-19T21:51:35.422Z,10.45
2023-01-19T21:54:03.251Z,8.80
2023-01-19T21:56:30.364Z,9.88
2023-01-19T21:58:57.376Z,10.77
2023-01-19T22:01:24.248Z,10.77
2023-01-19T22:03:55.022Z,9.20
2023-01-19T22:06:21.903Z,7.38
2023-01-19T22:08:48.429Z,7.70
2023-01-19T22:11:16.963Z,8.75
2023-01-19T22:13:43.541Z,8.68
2023-01-19T22:16:15.305Z,9.93
2023-01-19T22:18:43.775Z,9.27
2023-01-19T22:21:11.680Z,7.97
2023-01-19T22:23:38.765Z,9.35
2023-01-19T22:26:05.865Z,7.75
2023-01-19T22:28:33.497Z,10.35
2023-01-19T22:31:04.694Z,10.32
2023-01-19T22:33:31.316Z,8.00
2023-01-19T22:36:19.832Z,8.32
2023-01-19T22:38:57.554Z,8.32
2023-01-19T22:41:25.941Z,11.55
2023-01-19T22:43:55.352Z,9.18
2023-01-19T22:46:24.537Z,8.80
2023-01-19T22:48:51.899Z,9.45
2023-01-19T22:51:18.720Z,9.75
2023-01-19T22:53:45.604Z,11.45
2023-01-19T22:56:23.484Z,11.43
2023-01-19T22:58:50.519Z,11.50
2023-01-19T23:01:26.058Z,11.50
2023-01-19T23:03:53.583Z,9.45
2023-01-19T23:06:23.006Z,8.95
2023-01-19T23:08:50.079Z,8.13
2023-01-19T23:11:21.626Z,10.40
2023-01-19T23:13:48.974Z,12.02
2023-01-19T23:16:15.601Z,9.25
2023-01-19T23:18:42.523Z,11.13
2023-01-19T23:21:12.244Z,10.40
2023-01-19T23:23:38.813Z,11.23
2023-01-19T23:26:11.499Z,11.45
2023-01-19T23:28:39.131Z,9.70
2023-01-19T23:31:22.384Z,9.30
2023-01-19T23:33:50.176Z,10.75
2023-01-19T23:36:17.435Z,11.07
2023-01-19T23:38:49.032Z,11.48
2023-01-19T23:41:15.624Z,10.95
2023-01-19T23:43:42.061Z,9.10
2023-01-19T23:46:09.507Z,9.27
2023-01-19T23:48:36.513Z,11.38
2023-01-19T23:51:15.603Z,10.82
2023-01-19T23:53:42.106Z,11.10
2023-01-19T23:56:14.590Z,8.90
2023-01-19T23:58:41.605Z,11.10
